createdAt,value
2018-04-23T00:02:14.882Z,97665.20
2018-04-23T00:04:43.152Z,97664.81
2018-04-23T00:07:12.202Z,97661.34
2018-04-23T00:09:40.471Z,97661.42
2018-04-23T00:12:08.759Z,97659.47
2018-04-23T00:14:37.047Z,97658.13
2018-04-23T00:17:05.312Z,97658.44
2018-04-23T00:19:33.591Z,97656.19
2018-04-23T00:22:01.942Z,97654.00
2018-04-23T00:24:30.308Z,97647.75
2018-04-23T00:26:58.587Z,97651.23
2018-04-23T00:29:26.870Z,97651.69
2018-04-23T00:31:55.134Z,97648.88
2018-04-23T00:34:23.413Z,97656.08
2018-04-23T00:36:51.682Z,97647.88
2018-04-23T00:39:19.965Z,97652.00
2018-04-23T00:41:48.243Z,97652.23
2018-04-23T00:44:16.521Z,97650.53
2018-04-23T00:46:44.787Z,97656.16
2018-04-23T00:49:13.078Z,97652.35
2018-04-23T00:51:41.375Z,97659.94
2018-04-23T00:54:09.667Z,97655.84
2018-04-23T00:56:37.942Z,97655.74
2018-04-23T00:59:06.209Z,97664.71
2018-04-23T01:01:35.252Z,97654.31
2018-04-23T01:04:03.535Z,97649.83
2018-04-23T01:06:31.800Z,97644.92
2018-04-23T01:09:00.845Z,97648.38
2018-04-23T01:11:29.127Z,97641.45
2018-04-23T01:13:57.394Z,97635.03
2018-04-23T01:16:25.670Z,97640.41
2018-04-23T01:18:53.950Z,97646.36
2018-04-23T01:21:22.207Z,97644.34
2018-04-23T01:23:50.501Z,97656.92
2018-04-23T01:26:19.544Z,97654.06
2018-04-23T01:28:48.571Z,97659.45
2018-04-23T01:31:16.859Z,97666.82
2018-04-23T01:33:45.136Z,97668.58
2018-04-23T01:36:13.398Z,97663.37
2018-04-23T01:38:41.672Z,97683.98
2018-04-23T01:41:09.946Z,97687.16
2018-04-23T01:43:38.211Z,97686.59
2018-04-23T01:46:06.507Z,97677.74
2018-04-23T01:48:34.794Z,97691.16
2018-04-23T01:51:03.062Z,97687.05
2018-04-23T01:53:31.344Z,97690.89
2018-04-23T01:55:59.615Z,97695.55
2018-04-23T01:58:27.881Z,97701.83
2018-04-23T02:00:56.165Z,97700.38
2018-04-23T02:03:24.450Z,97679.90
2018-04-23T02:05:52.707Z,97658.97
2018-04-23T02:08:20.987Z,97661.05
2018-04-23T02:10:49.258Z,97647.23
2018-04-23T02:13:17.548Z,97627.81
2018-04-23T02:15:45.823Z,97628.43
2018-04-23T02:18:14.105Z,97646.37
2018-04-23T02:20:42.366Z,97651.13
2018-04-23T02:23:10.651Z,97650.47
2018-04-23T02:25:38.928Z,97646.92
2018-04-23T02:28:07.192Z,97642.03
2018-04-23T02:30:35.478Z,97642.77
2018-04-23T02:33:03.854Z,97640.82
2018-04-23T02:35:32.248Z,97645.61
2018-04-23T02:38:00.511Z,97649.06
2018-04-23T02:40:28.779Z,97650.95
2018-04-23T02:42:57.071Z,97650.53
2018-04-23T02:45:25.355Z,97646.05
2018-04-23T02:47:53.635Z,97655.59
2018-04-23T02:50:21.935Z,97652.73
2018-04-23T02:52:50.222Z,97650.34
2018-04-23T02:55:18.543Z,97647.23
2018-04-23T02:57:46.819Z,97647.72
2018-04-23T03:00:15.075Z,97650.27
2018-04-23T03:02:43.388Z,97653.98
2018-04-23T03:05:11.652Z,97656.13
2018-04-23T03:07:39.943Z,97661.97
2018-04-23T03:10:08.298Z,97667.53
2018-04-23T03:12:36.572Z,97665.17
2018-04-23T03:15:04.867Z,97664.10
2018-04-23T03:17:33.243Z,97662.58
2018-04-23T03:20:01.624Z,97667.52
2018-04-23T03:22:29.987Z,97674.27
2018-04-23T03:24:58.368Z,97675.48
2018-04-23T03:27:26.635Z,97685.39
2018-04-23T03:29:54.951Z,97688.73
2018-04-23T03:32:23.305Z,97693.14
2018-04-23T03:34:51.582Z,97703.06
2018-04-23T03:37:19.843Z,97704.61
2018-04-23T03:39:48.150Z,97686.69
2018-04-23T03:42:16.415Z,97686.04
2018-04-23T03:44:44.694Z,97688.23
2018-04-23T03:47:12.974Z,97687.07
2018-04-23T03:49:41.322Z,97682.45
2018-04-23T03:52:09.596Z,97677.59
2018-04-23T03:54:37.902Z,97679.38
2018-04-23T03:57:06.166Z,97682.14
2018-04-23T03:59:34.459Z,97688.58
2018-04-23T04:02:02.832Z,97681.52
2018-04-23T04:04:31.217Z,97684.80
2018-04-23T04:06:59.575Z,97680.72
2018-04-23T04:09:27.864Z,97681.94
2018-04-23T04:11:56.155Z,97682.95
2018-04-23T04:21:11.788Z,97693.57
2018-04-23T04:23:40.117Z,97684.36
2018-04-23T04:26:08.374Z,97679.55
2018-04-23T04:28:37.404Z,97669.42
2018-04-23T04:31:05.688Z,97669.78
2018-04-23T04:33:33.951Z,97681.22
2018-04-23T04:36:02.234Z,97680.92
2018-04-23T04:38:30.516Z,97700.28
2018-04-23T04:40:58.776Z,97691.89
2018-04-23T04:43:27.070Z,97698.52
2018-04-23T04:45:55.325Z,97705.72
2018-04-23T04:48:23.596Z,97713.02
2018-04-23T04:50:51.897Z,97713.41
2018-04-23T04:53:20.161Z,97715.40
2018-04-23T04:55:48.422Z,97715.45
2018-04-23T04:58:16.720Z,97713.80
2018-04-23T05:00:44.999Z,97714.90
2018-04-23T05:03:13.274Z,97708.04
2018-04-23T05:05:41.544Z,97707.96
2018-04-23T05:08:09.822Z,97694.28
2018-04-23T05:10:38.090Z,97701.00
2018-04-23T05:13:06.382Z,97705.45
2018-04-23T05:15:34.650Z,97698.15
2018-04-23T05:18:02.915Z,97701.61
2018-04-23T05:20:31.211Z,97708.16
2018-04-23T05:22:59.554Z,97718.05
2018-04-23T05:25:28.602Z,97727.77
2018-04-23T05:27:56.929Z,97735.61
2018-04-23T05:30:25.235Z,97735.67
2018-04-23T05:32:53.583Z,97735.16
2018-04-23T05:35:21.951Z,97735.06
2018-04-23T05:37:50.291Z,97733.74
2018-04-23T05:40:19.346Z,97729.66
2018-04-23T05:42:47.644Z,97721.65
2018-04-23T05:45:15.898Z,97715.78
2018-04-23T05:47:44.167Z,97721.20
2018-04-23T05:50:13.218Z,97712.44
2018-04-23T05:52:41.483Z,97718.02
2018-04-23T05:55:09.759Z,97720.88
2018-04-23T05:57:38.039Z,97721.84
2018-04-23T06:00:06.331Z,97724.63
2018-04-23T06:02:34.598Z,97729.28
2018-04-23T06:05:02.863Z,97727.19
2018-04-23T06:07:31.161Z,97730.50
2018-04-23T06:09:59.428Z,97728.24
2018-04-23T06:12:27.703Z,97729.55
2018-04-23T06:14:55.980Z,97739.10
2018-04-23T06:17:24.241Z,97729.77
2018-04-23T06:19:52.494Z,97738.86
2018-04-23T06:22:20.873Z,97730.45
2018-04-23T06:24:49.896Z,97729.39
2018-04-23T06:27:19.134Z,97738.20
2018-04-23T06:29:48.171Z,97734.31
2018-04-23T06:32:16.442Z,97735.73
2018-04-23T06:34:44.702Z,97737.63
2018-04-23T06:37:12.978Z,97738.20
2018-04-23T06:39:41.250Z,97741.94
2018-04-23T06:42:09.521Z,97740.25
2018-04-23T06:44:38.612Z,97742.65
2018-04-23T06:47:07.657Z,97744.67
2018-04-23T06:49:35.947Z,97740.91
2018-04-23T06:52:04.219Z,97754.05
2018-04-23T06:54:32.502Z,97755.27
2018-04-23T06:57:00.803Z,97758.90
2018-04-23T06:59:29.839Z,97760.06
2018-04-23T07:01:58.123Z,97758.89
2018-04-23T07:04:26.386Z,97758.48
2018-04-23T07:06:54.655Z,97767.82
2018-04-23T07:09:22.935Z,97764.58
2018-04-23T07:11:51.227Z,97772.51
2018-04-23T07:14:19.496Z,97770.01
2018-04-23T07:16:47.791Z,97772.69
2018-04-23T07:19:16.089Z,97767.90
2018-04-23T07:21:44.348Z,97771.73
2018-04-23T07:24:12.628Z,97772.62
2018-04-23T07:26:40.883Z,97765.63
2018-04-23T07:29:09.155Z,97766.25
2018-04-23T07:31:37.446Z,97764.79
2018-04-23T07:34:05.802Z,97770.97
2018-04-23T07:36:34.080Z,97773.73
2018-04-23T07:39:02.375Z,97777.98
2018-04-23T07:41:30.728Z,97782.52
2018-04-23T07:43:59.019Z,97781.62
2018-04-23T07:46:27.336Z,97784.05
2018-04-23T07:48:56.546Z,97781.11
2018-04-23T07:51:24.822Z,97786.42
2018-04-23T07:53:53.855Z,97795.19
2018-04-23T07:56:22.213Z,97794.16
2018-04-23T07:58:50.518Z,97797.09
2018-04-23T08:01:18.822Z,97801.50
2018-04-23T08:03:47.163Z,97803.83
2018-04-23T08:06:15.441Z,97807.17
2018-04-23T08:08:43.722Z,97804.70
2018-04-23T08:11:12.007Z,97803.38
2018-04-23T08:13:40.374Z,97807.11
2018-04-23T08:16:08.651Z,97800.88
2018-04-23T08:18:36.922Z,97802.77
2018-04-23T08:21:05.193Z,97810.07
2018-04-23T08:23:34.303Z,97812.89
2018-04-23T08:26:02.563Z,97816.66
2018-04-23T08:28:30.856Z,97814.86
2018-04-23T08:30:59.247Z,97824.20
2018-04-23T08:33:27.517Z,97813.27
2018-04-23T08:35:55.834Z,97808.80
2018-04-23T08:38:24.954Z,97820.13
2018-04-23T08:40:53.258Z,97825.77
2018-04-23T08:43:21.568Z,97821.42
2018-04-23T08:45:49.838Z,97824.36
2018-04-23T08:48:18.099Z,97814.06
2018-04-23T08:50:46.459Z,97825.60
2018-04-23T08:53:14.747Z,97822.05
2018-04-23T08:55:43.085Z,97819.72
2018-04-23T08:58:12.127Z,97822.58
2018-04-23T09:00:40.419Z,97818.86
2018-04-23T09:03:08.684Z,97816.54
2018-04-23T09:05:37.053Z,97816.00
2018-04-23T09:08:05.315Z,97821.87
2018-04-23T09:10:33.698Z,97813.71
2018-04-23T09:13:01.971Z,97818.39
2018-04-23T09:15:30.259Z,97819.31
2018-04-23T09:17:58.543Z,97823.69
2018-04-23T09:20:26.808Z,97813.23
2018-04-23T09:22:55.204Z,97815.23
2018-04-23T09:25:23.454Z,97816.08
2018-04-23T09:27:51.738Z,97812.99
2018-04-23T09:30:20.024Z,97807.64
2018-04-23T09:32:48.299Z,97815.78
2018-04-23T09:35:16.578Z,97817.42
2018-04-23T09:37:44.842Z,97822.00
2018-04-23T09:40:13.140Z,97821.42
2018-04-23T09:42:41.408Z,97823.66
2018-04-23T09:45:09.664Z,97817.24
2018-04-23T09:47:37.940Z,97819.25
2018-04-23T09:50:06.240Z,97818.00
2018-04-23T09:52:34.514Z,97828.70
2018-04-23T09:55:02.766Z,97816.11
2018-04-23T09:57:31.063Z,97821.47
2018-04-23T09:59:59.328Z,97829.44
2018-04-23T10:02:27.607Z,97822.02
2018-04-23T10:04:55.892Z,97834.98
2018-04-23T10:07:24.161Z,97837.34
2018-04-23T10:09:52.436Z,97841.66
2018-04-23T10:12:20.685Z,97847.38
2018-04-23T10:14:48.983Z,97835.95
2018-04-23T10:17:17.276Z,97848.48
2018-04-23T10:19:45.550Z,97837.02
2018-04-23T10:22:13.824Z,97843.34
2018-04-23T10:24:42.088Z,97840.92
2018-04-23T10:27:10.359Z,97852.55
2018-04-23T10:29:38.643Z,97850.55
2018-04-23T10:32:06.932Z,97853.94
2018-04-23T10:34:35.247Z,97843.24
2018-04-23T10:37:03.566Z,97856.09
2018-04-23T10:39:31.828Z,97860.38
2018-04-23T10:42:00.879Z,97861.33
2018-04-23T10:44:29.147Z,97884.65
2018-04-23T10:46:58.332Z,97863.67
2018-04-23T10:49:26.692Z,97873.28
2018-04-23T10:51:55.053Z,97866.08
2018-04-23T10:54:23.341Z,97869.27
2018-04-23T10:56:51.612Z,97863.47
2018-04-23T10:59:19.904Z,97878.95
2018-04-23T11:01:48.201Z,97874.16
2018-04-23T11:04:16.463Z,97861.03
2018-04-23T11:06:44.717Z,97860.83
2018-04-23T11:09:13.012Z,97855.28
2018-04-23T11:11:41.273Z,97856.52
2018-04-23T11:14:09.564Z,97862.82
2018-04-23T11:16:37.822Z,97860.94
2018-04-23T11:19:06.119Z,97864.75
2018-04-23T11:21:34.390Z,97875.16
2018-04-23T11:24:02.663Z,97860.59
2018-04-23T11:26:30.918Z,97866.72
2018-04-23T11:28:59.204Z,97871.29
2018-04-23T11:31:27.473Z,97856.75
2018-04-23T11:33:55.734Z,97862.89
2018-04-23T11:36:24.859Z,97870.33
2018-04-23T11:38:53.128Z,97875.80
2018-04-23T11:41:21.414Z,97869.42
2018-04-23T11:43:49.800Z,97884.59
2018-04-23T11:46:18.060Z,97881.35
2018-04-23T11:48:46.358Z,97886.04
2018-04-23T11:51:14.630Z,97886.59
2018-04-23T11:53:43.007Z,97890.93
2018-04-23T11:56:11.282Z,97888.73
2018-04-23T11:58:39.660Z,97885.59
2018-04-23T12:01:07.928Z,97890.37
2018-04-23T12:03:36.203Z,97889.10
2018-04-23T12:06:04.469Z,97884.55
2018-04-23T12:08:32.758Z,97880.07
2018-04-23T12:11:01.029Z,97886.14
2018-04-23T12:13:29.314Z,97879.63
2018-04-23T12:15:57.595Z,97889.39
2018-04-23T12:18:25.874Z,97890.14
2018-04-23T12:20:54.365Z,97891.42
2018-04-23T12:23:22.640Z,97903.58
2018-04-23T12:25:50.930Z,97881.66
2018-04-23T12:28:19.217Z,97902.39
2018-04-23T12:30:47.490Z,97903.39
2018-04-23T12:33:15.832Z,97896.56
2018-04-23T12:35:44.104Z,97890.45
2018-04-23T12:38:12.502Z,97890.16
2018-04-23T12:40:41.709Z,97884.60
2018-04-23T12:43:09.998Z,97889.49
2018-04-23T12:45:38.259Z,97885.10
2018-04-23T12:48:06.548Z,97886.04
2018-04-23T12:50:34.831Z,97878.84
2018-04-23T12:53:03.183Z,97889.05
2018-04-23T12:55:31.470Z,97882.08
2018-04-23T12:57:59.730Z,97881.09
2018-04-23T13:00:28.007Z,97879.51
2018-04-23T13:02:56.299Z,97871.55
2018-04-23T13:05:24.558Z,97888.16
2018-04-23T13:07:52.928Z,97876.80
2018-04-23T13:10:21.202Z,97863.96
2018-04-23T13:12:49.535Z,97874.72
2018-04-23T13:15:18.581Z,97880.74
2018-04-23T13:17:46.862Z,97873.87
2018-04-23T13:20:15.125Z,97870.58
2018-04-23T13:22:43.422Z,97865.89
2018-04-23T13:25:11.785Z,97860.55
2018-04-23T13:27:40.060Z,97860.91
2018-04-23T13:30:08.343Z,97869.63
2018-04-23T13:32:36.624Z,97864.45
2018-04-23T13:35:04.890Z,97853.42
2018-04-23T13:37:33.163Z,97847.55
2018-04-23T13:40:01.424Z,97863.03
2018-04-23T13:42:29.752Z,97851.82
2018-04-23T13:44:58.106Z,97860.86
2018-04-23T13:47:26.395Z,97856.80
2018-04-23T13:49:54.752Z,97851.35
2018-04-23T13:52:23.023Z,97849.38
2018-04-23T13:54:51.328Z,97852.11
2018-04-23T13:57:19.688Z,97853.73
2018-04-23T13:59:47.958Z,97851.70
2018-04-23T14:02:16.267Z,97841.25
2018-04-23T14:04:44.547Z,97845.39
2018-04-23T14:07:12.827Z,97838.17
2018-04-23T14:09:41.103Z,97852.84
2018-04-23T14:12:09.411Z,97836.52
2018-04-23T14:14:38.471Z,97839.16
2018-04-23T14:17:06.744Z,97824.27
2018-04-23T14:19:36.052Z,97829.39
2018-04-23T14:22:04.315Z,97816.94
2018-04-23T14:24:32.584Z,97827.14
2018-04-23T14:27:00.845Z,97819.38
2018-04-23T14:29:29.133Z,97812.65
2018-04-23T14:31:57.387Z,97812.77
2018-04-23T14:34:25.692Z,97816.70
2018-04-23T14:36:53.999Z,97807.79
2018-04-23T14:39:23.035Z,97813.36
2018-04-23T14:41:51.339Z,97814.27
2018-04-23T14:44:19.619Z,97795.70
2018-04-23T14:46:47.886Z,97803.72
2018-04-23T14:49:16.172Z,97802.73
2018-04-23T14:51:44.436Z,97803.82
2018-04-23T14:54:12.732Z,97803.75
2018-04-23T14:56:41.008Z,97804.07
2018-04-23T14:59:09.279Z,97801.43
2018-04-23T15:01:37.628Z,97800.05
2018-04-23T15:04:05.893Z,97808.86
2018-04-23T15:06:34.175Z,97814.05
2018-04-23T15:09:02.447Z,97807.56
2018-04-23T15:11:30.706Z,97815.19
2018-04-23T15:13:59.771Z,97819.36
2018-04-23T15:16:28.079Z,97823.09
2018-04-23T15:18:57.119Z,97815.09
2018-04-23T15:21:25.399Z,97813.16
2018-04-23T15:23:53.684Z,97814.88
2018-04-23T15:26:21.991Z,97811.33
2018-04-23T15:28:51.031Z,97819.97
2018-04-23T15:31:19.302Z,97833.28
2018-04-23T15:33:47.571Z,97838.08
2018-04-23T15:36:15.847Z,97834.71
2018-04-23T15:38:44.114Z,97830.26
2018-04-23T15:41:12.380Z,97837.02
2018-04-23T15:43:40.659Z,97838.98
2018-04-23T15:46:08.928Z,97837.83
2018-04-23T15:48:37.215Z,97839.28
2018-04-23T15:51:05.471Z,97851.90
2018-04-23T15:53:34.502Z,97854.10
2018-04-23T15:56:02.783Z,97851.16
2018-04-23T15:58:31.059Z,97860.53
2018-04-23T16:00:59.334Z,97868.27
2018-04-23T16:03:27.634Z,97867.20
2018-04-23T16:05:55.911Z,97872.09
2018-04-23T16:08:24.180Z,97871.57
2018-04-23T16:10:52.454Z,97867.89
2018-04-23T16:13:20.722Z,97865.60
2018-04-23T16:15:49.007Z,97870.52
2018-04-23T16:18:17.278Z,97869.78
2018-04-23T16:20:45.538Z,97864.61
2018-04-23T16:23:13.836Z,97875.47
2018-04-23T16:25:42.101Z,97865.88
2018-04-23T16:28:10.387Z,97872.25
2018-04-23T16:30:39.456Z,97867.80
2018-04-23T16:33:07.761Z,97872.69
2018-04-23T16:35:36.817Z,97882.98
2018-04-23T16:38:05.102Z,97884.09
2018-04-23T16:40:33.394Z,97886.12
2018-04-23T16:43:01.668Z,97885.13
2018-04-23T16:45:29.948Z,97883.27
2018-04-23T16:47:58.217Z,97889.33
2018-04-23T16:50:26.506Z,97892.55
2018-04-23T16:52:54.779Z,97888.75
2018-04-23T16:55:23.048Z,97894.05
2018-04-23T16:57:51.327Z,97896.38
2018-04-23T17:00:19.687Z,97896.85
2018-04-23T17:02:47.985Z,97898.59
2018-04-23T17:05:16.272Z,97900.67
2018-04-23T17:07:44.582Z,97897.36
2018-04-23T17:10:12.842Z,97901.07
2018-04-23T17:12:41.099Z,97901.59
2018-04-23T17:15:10.160Z,97904.73
2018-04-23T17:17:38.457Z,97903.44
2018-04-23T17:20:06.736Z,97905.81
2018-04-23T17:22:34.999Z,97906.30
2018-04-23T17:25:03.289Z,97908.37
2018-04-23T17:27:31.616Z,97916.55
2018-04-23T17:30:00.645Z,97913.44
2018-04-23T17:32:28.924Z,97921.47
2018-04-23T17:34:57.194Z,97921.52
2018-04-23T17:37:25.478Z,97923.57
2018-04-23T17:39:53.754Z,97924.51
2018-04-23T17:42:22.134Z,97934.30
2018-04-23T17:44:50.399Z,97935.24
2018-04-23T17:47:18.675Z,97935.23
2018-04-23T17:49:46.951Z,97941.89
2018-04-23T17:52:15.219Z,97942.56
2018-04-23T17:54:43.613Z,97942.02
2018-04-23T17:57:11.946Z,97946.20
2018-04-23T17:59:40.219Z,97948.16
2018-04-23T18:02:08.497Z,97950.23
2018-04-23T18:04:36.788Z,97963.12
2018-04-23T18:07:05.834Z,97957.36
2018-04-23T18:09:34.102Z,97958.65
2018-04-23T18:12:02.397Z,97961.03
2018-04-23T18:14:30.673Z,97961.28
2018-04-23T18:16:59.500Z,97970.33
2018-04-23T18:19:27.779Z,97974.78
2018-04-23T18:21:56.833Z,97975.13
2018-04-23T18:24:25.212Z,97979.79
2018-04-23T18:26:54.523Z,97972.98
2018-04-23T18:29:24.045Z,97974.95
2018-04-23T18:31:53.240Z,97979.49
2018-04-23T18:34:22.579Z,97975.47
2018-04-23T18:36:52.405Z,97986.39
2018-04-23T18:39:22.530Z,97984.20
2018-04-23T18:41:52.661Z,97987.91
2018-04-23T18:44:22.027Z,97983.80
2018-04-23T18:46:51.345Z,97986.23
2018-04-23T18:49:21.531Z,97987.57
2018-04-23T18:51:50.913Z,97987.18
2018-04-23T18:54:20.216Z,97987.66
2018-04-23T18:56:49.725Z,97993.66
2018-04-23T18:59:19.056Z,98001.42
2018-04-23T19:01:48.403Z,98010.45
2018-04-23T19:04:17.817Z,98016.89
2018-04-23T19:06:47.150Z,98012.89
2018-04-23T19:09:17.096Z,98012.18
2018-04-23T19:11:47.942Z,98017.00
2018-04-23T19:14:18.649Z,98017.27
2018-04-23T19:16:49.418Z,98023.55
2018-04-23T19:19:19.526Z,98022.56
2018-04-23T19:21:49.404Z,98028.23
2018-04-23T19:24:19.475Z,98034.16
2018-04-23T19:26:49.680Z,98032.20
2018-04-23T19:29:19.589Z,98037.08
2018-04-23T19:31:50.251Z,98037.73
2018-04-23T19:34:20.372Z,98030.04
2018-04-23T19:36:50.302Z,98032.19
2018-04-23T19:39:20.297Z,98033.33
2018-04-23T19:41:50.054Z,98039.84
2018-04-23T19:44:20.136Z,98036.23
2018-04-23T19:46:50.244Z,98042.93
2018-04-23T19:49:20.447Z,98038.28
2018-04-23T19:51:50.673Z,98035.91
2018-04-23T19:54:20.812Z,98032.50
2018-04-23T19:56:50.727Z,98041.22
2018-04-23T19:59:20.641Z,98040.12
2018-04-23T20:01:50.049Z,98046.23
2018-04-23T20:04:20.314Z,98054.48
2018-04-23T20:06:49.978Z,98052.43
2018-04-23T20:09:19.745Z,98052.17
2018-04-23T20:11:50.536Z,98047.10
2018-04-23T20:14:20.484Z,98044.13
2018-04-23T20:16:50.402Z,98041.02
2018-04-23T20:19:21.185Z,98045.59
2018-04-23T20:21:51.294Z,98046.46
2018-04-23T20:24:21.295Z,98040.82
2018-04-23T20:26:51.202Z,98050.26
2018-04-23T20:29:21.951Z,98051.34
2018-04-23T20:31:52.550Z,98049.45
2018-04-23T20:34:22.230Z,98046.33
2018-04-23T20:36:50.971Z,98044.05
2018-04-23T20:39:19.584Z,98042.44
2018-04-23T20:41:48.680Z,98038.88
2018-04-23T20:44:16.972Z,98038.38
2018-04-23T20:46:45.292Z,98042.17
2018-04-23T20:49:13.587Z,98044.06
2018-04-23T20:51:41.847Z,98046.69
2018-04-23T20:54:10.120Z,98044.95
2018-04-23T20:56:38.439Z,98041.51
2018-04-23T20:59:06.702Z,98041.63
2018-04-23T21:01:35.740Z,98045.67
2018-04-23T21:04:04.788Z,98052.96
2018-04-23T21:06:33.090Z,98053.50
2018-04-23T21:09:01.362Z,98047.28
2018-04-23T21:11:29.723Z,98050.09
2018-04-23T21:13:57.999Z,98053.97
2018-04-23T21:16:26.283Z,98049.70
2018-04-23T21:18:54.560Z,98053.56
2018-04-23T21:21:22.827Z,98059.98
2018-04-23T21:23:51.100Z,98059.60
2018-04-23T21:26:19.371Z,98057.67
2018-04-23T21:28:47.687Z,98060.42
2018-04-23T21:31:15.995Z,98062.70
2018-04-23T21:33:44.304Z,98065.76
2018-04-23T21:36:12.566Z,98065.93
2018-04-23T21:38:40.877Z,98065.93
2018-04-23T21:41:09.156Z,98065.57
2018-04-23T21:43:38.416Z,98070.45
2018-04-23T21:46:06.655Z,98065.44
2018-04-23T21:48:34.978Z,98068.62
2018-04-23T21:51:03.243Z,98067.73
2018-04-23T21:53:31.662Z,98072.91
2018-04-23T21:55:59.927Z,98074.11
2018-04-23T21:58:28.195Z,98071.12
2018-04-23T22:00:56.482Z,98068.64
2018-04-23T22:03:24.758Z,98077.69
2018-04-23T22:05:53.112Z,98082.96
2018-04-23T22:08:21.398Z,98076.62
2018-04-23T22:10:49.667Z,98089.30
2018-04-23T22:13:17.940Z,98085.82
2018-04-23T22:15:46.217Z,98082.40
2018-04-23T22:18:14.580Z,98087.11
2018-04-23T22:20:42.806Z,98088.41
2018-04-23T22:23:11.162Z,98089.64
2018-04-23T22:25:39.439Z,98099.15
2018-04-23T22:28:07.810Z,98098.33
2018-04-23T22:30:36.094Z,98098.31
2018-04-23T22:33:04.366Z,98097.05
2018-04-23T22:35:32.632Z,98095.75
2018-04-23T22:38:00.907Z,98098.80
2018-04-23T22:40:29.171Z,98095.78
2018-04-23T22:42:57.468Z,98100.52
2018-04-23T22:45:25.807Z,98103.09
2018-04-23T22:47:54.835Z,98105.32
2018-04-23T22:50:23.117Z,98101.52
2018-04-23T22:52:51.366Z,98103.67
2018-04-23T22:55:19.650Z,98106.61
2018-04-23T22:57:47.911Z,98113.48
2018-04-23T23:00:16.935Z,98115.59
2018-04-23T23:02:45.198Z,98115.64
2018-04-23T23:05:13.485Z,98107.55
2018-04-23T23:07:41.759Z,98105.01
2018-04-23T23:10:10.149Z,98107.54
2018-04-23T23:12:38.424Z,98101.14
2018-04-23T23:15:06.700Z,98108.84
2018-04-23T23:17:34.955Z,98109.28
2018-04-23T23:20:03.218Z,98107.59
2018-04-23T23:22:32.340Z,98115.27
2018-04-23T23:25:00.607Z,98109.72
2018-04-23T23:27:28.879Z,98113.96
2018-04-23T23:29:57.195Z,98100.77
2018-04-23T23:32:25.467Z,98113.13
2018-04-23T23:34:53.738Z,98106.31
2018-04-23T23:37:22.159Z,98111.01
2018-04-23T23:39:50.487Z,98102.94
2018-04-23T23:42:18.755Z,98105.49
2018-04-23T23:44:47.001Z,98111.05
2018-04-23T23:47:16.031Z,98107.62
2018-04-23T23:49:44.309Z,98109.33
2018-04-23T23:52:12.565Z,98110.20
2018-04-23T23:54:40.838Z,98115.75
2018-04-23T23:57:09.086Z,98120.88
2018-04-23T23:59:37.477Z,98118.73
